sensor_id;sensor_type;location;lat;lon;timestamp;pressure;altitude;pressure_sealevel;temperature;humidity
68376;BME280;55318;52.068;5.188;2023-02-28T00:01:10;103239.00000000001;;;2.8;85.0
68376;BME280;55318;52.068;5.188;2023-02-28T00:02:47;103242.0;;;2.94;84.97
68376;BME280;55318;52.068;5.188;2023-02-28T00:06:01;103231.0;;;2.94;84.77
68376;BME280;55318;52.068;5.188;2023-02-28T00:07:37;103228.0;;;2.94;84.66
68376;BME280;55318;52.068;5.188;2023-02-28T00:09:14;103233.99999999999;;;2.93;85.14
68376;BME280;55318;52.068;5.188;2023-02-28T00:10:50;103225.0;;;2.84;85.19
68376;BME280;55318;52.068;5.188;2023-02-28T00:14:03;103224.0;;;2.92;84.87
68376;BME280;55318;52.068;5.188;2023-02-28T00:15:39;103230.0;;;3.11;84.08
68376;BME280;55318;52.068;5.188;2023-02-28T00:17:15;103230.0;;;3.12;83.97
68376;BME280;55318;52.068;5.188;2023-02-28T00:20:27;103240.00000000001;;;3.11;84.41
68376;BME280;55318;52.068;5.188;2023-02-28T00:22:03;103239.00000000001;;;3.05;84.62
68376;BME280;55318;52.068;5.188;2023-02-28T00:23:39;103232.0;;;2.98;85.44
68376;BME280;55318;52.068;5.188;2023-02-28T00:26:55;103234.99999999999;;;3.03;85.45
68376;BME280;55318;52.068;5.188;2023-02-28T00:28:32;103236.99999999999;;;3.13;85.5
68376;BME280;55318;52.068;5.188;2023-02-28T00:30:10;103240.00000000001;;;3.27;84.95
68376;BME280;55318;52.068;5.188;2023-02-28T00:31:51;103240.00000000001;;;3.24;84.97
68376;BME280;55318;52.068;5.188;2023-02-28T00:35:06;103242.0;;;3.3;85.23
68376;BME280;55318;52.068;5.188;2023-02-28T00:36:42;103239.00000000001;;;3.45;84.7
68376;BME280;55318;52.068;5.188;2023-02-28T00:38:20;103240.00000000001;;;3.54;84.51
68376;BME280;55318;52.068;5.188;2023-02-28T00:41:32;103239.00000000001;;;3.61;84.03
68376;BME280;55318;52.068;5.188;2023-02-28T00:43:08;103241.00000000001;;;3.55;84.29
68376;BME280;55318;52.068;5.188;2023-02-28T00:44:44;103242.0;;;3.55;84.19
68376;BME280;55318;52.068;5.188;2023-02-28T00:47:56;103240.00000000001;;;3.55;84.24
68376;BME280;55318;52.068;5.188;2023-02-28T00:49:33;103244.0;;;3.57;84.38
68376;BME280;55318;52.068;5.188;2023-02-28T00:51:09;103234.99999999999;;;3.74;83.48
68376;BME280;55318;52.068;5.188;2023-02-28T00:52:45;103228.0;;;3.96;82.81
68376;BME280;55318;52.068;5.188;2023-02-28T00:55:59;103229.0;;;3.88;83.17
68376;BME280;55318;52.068;5.188;2023-02-28T00:57:36;103224.0;;;3.92;82.8
68376;BME280;55318;52.068;5.188;2023-02-28T00:59:12;103224.0;;;3.9;83.29
68376;BME280;55318;52.068;5.188;2023-02-28T01:02:26;103227.0;;;3.89;83.39
68376;BME280;55318;52.068;5.188;2023-02-28T01:04:02;103230.0;;;4.03;82.79
68376;BME280;55318;52.068;5.188;2023-02-28T01:05:38;103231.0;;;3.9;83.3
68376;BME280;55318;52.068;5.188;2023-02-28T01:08:51;103229.0;;;3.94;83.59
68376;BME280;55318;52.068;5.188;2023-02-28T01:10:27;103223.0;;;4.04;83.08
68376;BME280;55318;52.068;5.188;2023-02-28T01:12:04;103228.0;;;4.03;83.1
68376;BME280;55318;52.068;5.188;2023-02-28T01:13:41;103233.0;;;4.0;83.43
68376;BME280;55318;52.068;5.188;2023-02-28T01:16:53;103231.0;;;4.18;83.14
68376;BME280;55318;52.068;5.188;2023-02-28T01:18:29;103232.0;;;4.13;83.04
68376;BME280;55318;52.068;5.188;2023-02-28T01:20:06;103236.99999999999;;;4.03;83.43
68376;BME280;55318;52.068;5.188;2023-02-28T01:23:19;103233.0;;;4.07;83.38
68376;BME280;55318;52.068;5.188;2023-02-28T01:24:56;103230.0;;;4.07;83.68
68376;BME280;55318;52.068;5.188;2023-02-28T01:26:32;103236.99999999999;;;4.07;83.46
68376;BME280;55318;52.068;5.188;2023-02-28T01:29:44;103230.0;;;4.09;83.04
68376;BME280;55318;52.068;5.188;2023-02-28T01:31:21;103233.0;;;4.07;83.41
68376;BME280;55318;52.068;5.188;2023-02-28T01:32:59;103231.0;;;4.1;83.49
68376;BME280;55318;52.068;5.188;2023-02-28T01:34:35;103227.0;;;4.12;83.25
68376;BME280;55318;52.068;5.188;2023-02-28T01:37:51;103223.0;;;4.24;82.84
68376;BME280;55318;52.068;5.188;2023-02-28T01:39:27;103225.0;;;4.29;82.61
68376;BME280;55318;52.068;5.188;2023-02-28T01:41:04;103223.0;;;4.33;82.74
68376;BME280;55318;52.068;5.188;2023-02-28T01:45:23;103222.0;;;4.3;82.72
68376;BME280;55318;52.068;5.188;2023-02-28T01:47:02;103223.0;;;4.24;82.91
68376;BME280;55318;52.068;5.188;2023-02-28T01:50:20;103221.0;;;4.32;82.42
68376;BME280;55318;52.068;5.188;2023-02-28T01:51:58;103217.0;;;4.26;82.97
68376;BME280;55318;52.068;5.188;2023-02-28T01:53:37;103218.0;;;4.28;83.07
68376;BME280;55318;52.068;5.188;2023-02-28T01:57:00;103217.0;;;4.32;83.05
68376;BME280;55318;52.068;5.188;2023-02-28T01:58:40;103211.99999999999;;;4.41;82.56
68376;BME280;55318;52.068;5.188;2023-02-28T02:00:20;103207.0;;;4.42;82.47
68376;BME280;55318;52.068;5.188;2023-02-28T02:01:59;103205.0;;;4.45;82.83
68376;BME280;55318;52.068;5.188;2023-02-28T02:05:15;103209.99999999999;;;4.39;83.04
68376;BME280;55318;52.068;5.188;2023-02-28T02:06:53;103204.0;;;4.49;82.67
68376;BME280;55318;52.068;5.188;2023-02-28T02:08:30;103196.0;;;4.49;81.8
68376;BME280;55318;52.068;5.188;2023-02-28T02:10:12;103197.0;;;4.37;82.74
68376;BME280;55318;52.068;5.188;2023-02-28T02:13:40;103192.0;;;4.38;82.65
68376;BME280;55318;52.068;5.188;2023-02-28T02:15:32;103188.00000000001;;;4.32;83.15
68376;BME280;55318;52.068;5.188;2023-02-28T02:17:19;103192.0;;;4.29;83.37
68376;BME280;55318;52.068;5.188;2023-02-28T02:19:11;103183.0;;;4.46;82.16
68376;BME280;55318;52.068;5.188;2023-02-28T02:21:52;103183.0;;;4.42;82.48
68376;BME280;55318;52.068;5.188;2023-02-28T02:27:22;103188.00000000001;;;4.33;83.24
68376;BME280;55318;52.068;5.188;2023-02-28T02:30:01;103190.00000000001;;;4.39;82.63
68376;BME280;55318;52.068;5.188;2023-02-28T02:33:18;103191.00000000001;;;4.36;83.07
68376;BME280;55318;52.068;5.188;2023-02-28T02:35:30;103192.0;;;4.45;82.12
68376;BME280;55318;52.068;5.188;2023-02-28T02:39:02;103196.0;;;4.45;82.25
68376;BME280;55318;52.068;5.188;2023-02-28T02:40:45;103198.0;;;4.55;81.69
68376;BME280;55318;52.068;5.188;2023-02-28T02:42:36;103203.0;;;4.42;82.49
68376;BME280;55318;52.068;5.188;2023-02-28T02:44:20;103202.0;;;4.46;82.15
68376;BME280;55318;52.068;5.188;2023-02-28T02:46:01;103205.0;;;4.45;82.17
68376;BME280;55318;52.068;5.188;2023-02-28T02:49:21;103205.0;;;4.49;82.26
68376;BME280;55318;52.068;5.188;2023-02-28T02:51:02;103202.0;;;4.43;82.74
68376;BME280;55318;52.068;5.188;2023-02-28T02:52:45;103198.0;;;4.49;82.11
68376;BME280;55318;52.068;5.188;2023-02-28T02:54:34;103197.0;;;4.55;82.24
68376;BME280;55318;52.068;5.188;2023-02-28T02:56:13;103193.0;;;4.45;82.46
68376;BME280;55318;52.068;5.188;2023-02-28T02:59:35;103201.0;;;4.49;82.66
68376;BME280;55318;52.068;5.188;2023-02-28T03:01:16;103202.0;;;4.49;82.61
68376;BME280;55318;52.068;5.188;2023-02-28T03:02:55;103202.0;;;4.43;83.11
68376;BME280;55318;52.068;5.188;2023-02-28T03:04:36;103202.0;;;4.47;83.2
68376;BME280;55318;52.068;5.188;2023-02-28T03:07:54;103203.0;;;4.63;83.12
68376;BME280;55318;52.068;5.188;2023-02-28T03:09:33;103199.0;;;4.62;82.73
68376;BME280;55318;52.068;5.188;2023-02-28T03:11:13;103203.0;;;4.63;83.3
68376;BME280;55318;52.068;5.188;2023-02-28T03:12:59;103202.0;;;4.53;83.73
68376;BME280;55318;52.068;5.188;2023-02-28T03:16:36;103203.0;;;4.53;83.81
68376;BME280;55318;52.068;5.188;2023-02-28T03:18:21;103201.0;;;4.68;83.26
68376;BME280;55318;52.068;5.188;2023-02-28T03:20:09;103200.0;;;4.61;83.76
68376;BME280;55318;52.068;5.188;2023-02-28T03:21:58;103196.0;;;4.51;84.11
68376;BME280;55318;52.068;5.188;2023-02-28T03:23:45;103195.0;;;4.66;83.52
68376;BME280;55318;52.068;5.188;2023-02-28T03:25:31;103197.0;;;4.47;83.35
68376;BME280;55318;52.068;5.188;2023-02-28T03:29:02;103197.0;;;4.51;83.98
68376;BME280;55318;52.068;5.188;2023-02-28T03:30:47;103199.0;;;4.61;83.81
68376;BME280;55318;52.068;5.188;2023-02-28T03:32:27;103195.0;;;4.55;83.9
68376;BME280;55318;52.068;5.188;2023-02-28T03:34:12;103196.0;;;4.57;84.09
68376;BME280;55318;52.068;5.188;2023-02-28T03:35:55;103202.0;;;4.49;84.61
68376;BME280;55318;52.068;5.188;2023-02-28T03:39:19;103199.0;;;4.64;84.1
68376;BME280;55318;52.068;5.188;2023-02-28T03:41:01;103201.0;;;4.66;83.8
68376;BME280;55318;52.068;5.188;2023-02-28T03:42:43;103198.0;;;4.67;84.03
68376;BME280;55318;52.068;5.188;2023-02-28T03:44:25;103202.0;;;4.64;84.14
68376;BME280;55318;52.068;5.188;2023-02-28T03:47:52;103198.0;;;4.57;84.21
68376;BME280;55318;52.068;5.188;2023-02-28T03:49:30;103199.0;;;4.61;84.21
68376;BME280;55318;52.068;5.188;2023-02-28T03:51:13;103199.0;;;4.57;84.24
68376;BME280;55318;52.068;5.188;2023-02-28T03:52:57;103202.0;;;4.53;85.1
68376;BME280;55318;52.068;5.188;2023-02-28T03:56:23;103202.0;;;4.58;84.78
68376;BME280;55318;52.068;5.188;2023-02-28T03:58:11;103204.0;;;4.58;84.45
68376;BME280;55318;52.068;5.188;2023-02-28T03:59:55;103200.0;;;4.53;85.21
68376;BME280;55318;52.068;5.188;2023-02-28T04:01:37;103201.0;;;4.54;84.87
68376;BME280;55318;52.068;5.188;2023-02-28T04:03:16;103208.0;;;4.53;85.17
68376;BME280;55318;52.068;5.188;2023-02-28T04:06:31;103208.0;;;4.53;84.88
68376;BME280;55318;52.068;5.188;2023-02-28T04:08:08;103207.0;;;4.45;84.49
68376;BME280;55318;52.068;5.188;2023-02-28T04:09:44;103208.0;;;4.45;84.72
68376;BME280;55318;52.068;5.188;2023-02-28T04:13:02;103216.00000000001;;;4.46;84.77
68376;BME280;55318;52.068;5.188;2023-02-28T04:14:38;103217.0;;;4.49;84.44
68376;BME280;55318;52.068;5.188;2023-02-28T04:16:15;103219.0;;;4.5;84.44
68376;BME280;55318;52.068;5.188;2023-02-28T04:17:52;103217.0;;;4.54;83.53
68376;BME280;55318;52.068;5.188;2023-02-28T04:21:04;103215.00000000001;;;4.62;83.59
68376;BME280;55318;52.068;5.188;2023-02-28T04:22:41;103216.00000000001;;;4.53;83.54
68376;BME280;55318;52.068;5.188;2023-02-28T04:24:19;103219.0;;;4.61;82.22
68376;BME280;55318;52.068;5.188;2023-02-28T04:27:33;103219.0;;;4.66;81.28
68376;BME280;55318;52.068;5.188;2023-02-28T04:29:11;103222.0;;;4.51;80.92
68376;BME280;55318;52.068;5.188;2023-02-28T04:30:54;103218.0;;;4.49;80.91
68376;BME280;55318;52.068;5.188;2023-02-28T04:32:31;103220.0;;;4.63;80.87
68376;BME280;55318;52.068;5.188;2023-02-28T04:35:43;103224.0;;;4.63;79.58
68376;BME280;55318;52.068;5.188;2023-02-28T04:37:20;103224.0;;;4.71;78.27
68376;BME280;55318;52.068;5.188;2023-02-28T04:38:56;103220.0;;;4.66;78.74
68376;BME280;55318;52.068;5.188;2023-02-28T04:42:09;103226.0;;;4.59;76.89
68376;BME280;55318;52.068;5.188;2023-02-28T04:43:46;103229.0;;;4.7;76.63
68376;BME280;55318;52.068;5.188;2023-02-28T04:45:22;103233.0;;;4.64;73.36
68376;BME280;55318;52.068;5.188;2023-02-28T04:46:58;103233.99999999999;;;4.66;72.94
68376;BME280;55318;52.068;5.188;2023-02-28T04:50:14;103228.0;;;4.74;72.06
68376;BME280;55318;52.068;5.188;2023-02-28T04:51:50;103229.0;;;4.78;72.24
68376;BME280;55318;52.068;5.188;2023-02-28T04:53:27;103233.0;;;4.67;71.33
68376;BME280;55318;52.068;5.188;2023-02-28T04:56:41;103226.0;;;4.66;71.12
68376;BME280;55318;52.068;5.188;2023-02-28T04:58:18;103229.0;;;4.68;70.91
68376;BME280;55318;52.068;5.188;2023-02-28T04:59:54;103233.0;;;4.62;71.08
68376;BME280;55318;52.068;5.188;2023-02-28T05:03:09;103232.0;;;4.63;70.69
68376;BME280;55318;52.068;5.188;2023-02-28T05:04:45;103229.0;;;4.67;71.09
68376;BME280;55318;52.068;5.188;2023-02-28T05:06:22;103226.0;;;4.5;72.16
68376;BME280;55318;52.068;5.188;2023-02-28T05:07:59;103229.0;;;4.45;72.16
68376;BME280;55318;52.068;5.188;2023-02-28T05:11:16;103226.0;;;4.5;72.12
68376;BME280;55318;52.068;5.188;2023-02-28T05:12:52;103219.0;;;4.55;71.72
68376;BME280;55318;52.068;5.188;2023-02-28T05:14:29;103224.0;;;4.57;71.06
68376;BME280;55318;52.068;5.188;2023-02-28T05:17:42;103227.0;;;4.57;69.88
68376;BME280;55318;52.068;5.188;2023-02-28T05:19:19;103227.0;;;4.45;70.87
68376;BME280;55318;52.068;5.188;2023-02-28T05:20:55;103228.0;;;4.49;70.61
68376;BME280;55318;52.068;5.188;2023-02-28T05:22:31;103232.0;;;4.32;70.36
68376;BME280;55318;52.068;5.188;2023-02-28T05:25:47;103233.0;;;4.21;70.41
68376;BME280;55318;52.068;5.188;2023-02-28T05:27:24;103231.0;;;4.07;71.2
68376;BME280;55318;52.068;5.188;2023-02-28T05:30:36;103231.0;;;4.14;71.25
68376;BME280;55318;52.068;5.188;2023-02-28T05:32:13;103232.0;;;4.13;71.61
68376;BME280;55318;52.068;5.188;2023-02-28T05:33:49;103233.99999999999;;;4.24;72.31
68376;BME280;55318;52.068;5.188;2023-02-28T05:35:26;103242.0;;;4.16;73.84
68376;BME280;55318;52.068;5.188;2023-02-28T05:38:39;103244.0;;;3.86;75.77
68376;BME280;55318;52.068;5.188;2023-02-28T05:40:15;103246.0;;;3.68;77.7
68376;BME280;55318;52.068;5.188;2023-02-28T05:41:52;103242.0;;;3.81;77.66
68376;BME280;55318;52.068;5.188;2023-02-28T05:43:28;103243.0;;;3.71;78.7
68376;BME280;55318;52.068;5.188;2023-02-28T05:46:41;103249.0;;;3.66;79.84
68376;BME280;55318;52.068;5.188;2023-02-28T05:48:17;103246.0;;;3.54;81.12
68376;BME280;55318;52.068;5.188;2023-02-28T05:49:53;103242.0;;;3.56;81.86
68376;BME280;55318;52.068;5.188;2023-02-28T05:53:06;103246.0;;;3.59;82.13
68376;BME280;55318;52.068;5.188;2023-02-28T05:54:42;103248.0;;;3.51;82.95
68376;BME280;55318;52.068;5.188;2023-02-28T05:56:18;103247.0;;;3.53;83.2
68376;BME280;55318;52.068;5.188;2023-02-28T05:59:30;103243.0;;;3.47;83.88
68376;BME280;55318;52.068;5.188;2023-02-28T06:01:32;103241.00000000001;;;3.37;83.25
68376;BME280;55318;52.068;5.188;2023-02-28T06:03:09;103241.00000000001;;;3.32;84.12
68376;BME280;55318;52.068;5.188;2023-02-28T06:04:45;103248.0;;;3.31;84.88
68376;BME280;55318;52.068;5.188;2023-02-28T06:07:58;103245.0;;;3.37;84.39
68376;BME280;55318;52.068;5.188;2023-02-28T06:09:34;103248.0;;;3.33;84.6
68376;BME280;55318;52.068;5.188;2023-02-28T06:11:11;103246.0;;;3.1;85.8
68376;BME280;55318;52.068;5.188;2023-02-28T06:12:48;103249.0;;;3.14;86.0
68376;BME280;55318;52.068;5.188;2023-02-28T06:16:01;103250.0;;;3.23;85.56
68376;BME280;55318;52.068;5.188;2023-02-28T06:17:37;103245.0;;;3.22;86.24
68376;BME280;55318;52.068;5.188;2023-02-28T06:19:13;103245.0;;;3.16;86.52
68376;BME280;55318;52.068;5.188;2023-02-28T06:22:28;103242.0;;;2.98;87.53
68376;BME280;55318;52.068;5.188;2023-02-28T06:24:05;103238.00000000001;;;2.92;88.19
68376;BME280;55318;52.068;5.188;2023-02-28T06:25:44;103242.0;;;2.92;88.37
68376;BME280;55318;52.068;5.188;2023-02-28T06:27:21;103241.00000000001;;;2.82;89.54
68376;BME280;55318;52.068;5.188;2023-02-28T06:30:33;103242.0;;;2.74;89.81
68376;BME280;55318;52.068;5.188;2023-02-28T06:32:09;103242.0;;;2.81;90.26
68376;BME280;55318;52.068;5.188;2023-02-28T06:33:46;103241.00000000001;;;2.76;91.18
68376;BME280;55318;52.068;5.188;2023-02-28T06:36:59;103238.00000000001;;;2.74;90.86
68376;BME280;55318;52.068;5.188;2023-02-28T06:38:36;103241.00000000001;;;2.71;91.32
68376;BME280;55318;52.068;5.188;2023-02-28T06:40:14;103242.0;;;2.64;91.39
68376;BME280;55318;52.068;5.188;2023-02-28T06:43:28;103246.0;;;2.59;91.66
68376;BME280;55318;52.068;5.188;2023-02-28T06:45:06;103242.0;;;2.75;92.09
68376;BME280;55318;52.068;5.188;2023-02-28T06:46:44;103245.0;;;2.73;91.95
68376;BME280;55318;52.068;5.188;2023-02-28T06:48:21;103241.00000000001;;;2.71;91.8
68376;BME280;55318;52.068;5.188;2023-02-28T06:51:33;103236.99999999999;;;2.95;91.19
68376;BME280;55318;52.068;5.188;2023-02-28T06:53:09;103245.0;;;3.33;89.18
68376;BME280;55318;52.068;5.188;2023-02-28T06:54:45;103250.0;;;3.38;89.42
68376;BME280;55318;52.068;5.188;2023-02-28T06:57:58;103249.0;;;3.12;90.54
68376;BME280;55318;52.068;5.188;2023-02-28T06:59:35;103245.0;;;3.45;89.27
68376;BME280;55318;52.068;5.188;2023-02-28T07:01:11;103248.0;;;3.14;90.46
68376;BME280;55318;52.068;5.188;2023-02-28T07:04:25;103242.0;;;3.31;90.57
68376;BME280;55318;52.068;5.188;2023-02-28T07:06:01;103242.0;;;3.51;89.41
68376;BME280;55318;52.068;5.188;2023-02-28T07:07:38;103247.0;;;3.22;89.8
68376;BME280;55318;52.068;5.188;2023-02-28T07:09:15;103242.0;;;3.06;90.92
68376;BME280;55318;52.068;5.188;2023-02-28T07:12:29;103242.0;;;3.05;90.56
68376;BME280;55318;52.068;5.188;2023-02-28T07:14:05;103236.99999999999;;;2.97;91.69
68376;BME280;55318;52.068;5.188;2023-02-28T07:15:41;103242.0;;;3.05;92.36
68376;BME280;55318;52.068;5.188;2023-02-28T07:18:53;103248.0;;;3.16;91.38
68376;BME280;55318;52.068;5.188;2023-02-28T07:20:30;103251.0;;;3.17;91.19
68376;BME280;55318;52.068;5.188;2023-02-28T07:22:07;103254.0;;;3.1;91.29
68376;BME280;55318;52.068;5.188;2023-02-28T07:25:20;103253.0;;;3.05;91.99
68376;BME280;55318;52.068;5.188;2023-02-28T07:26:56;103249.0;;;3.08;91.95
68376;BME280;55318;52.068;5.188;2023-02-28T07:28:33;103247.0;;;3.11;92.26
68376;BME280;55318;52.068;5.188;2023-02-28T07:30:10;103247.0;;;3.12;92.6
68376;BME280;55318;52.068;5.188;2023-02-28T07:33:23;103240.00000000001;;;3.16;93.05
68376;BME280;55318;52.068;5.188;2023-02-28T07:34:59;103242.0;;;3.2;92.94
68376;BME280;55318;52.068;5.188;2023-02-28T07:36:35;103249.0;;;3.37;92.22
68376;BME280;55318;52.068;5.188;2023-02-28T07:39:47;103254.0;;;3.27;92.09
68376;BME280;55318;52.068;5.188;2023-02-28T07:41:23;103255.0;;;3.37;92.12
68376;BME280;55318;52.068;5.188;2023-02-28T07:43:00;103258.0;;;3.32;92.31
68376;BME280;55318;52.068;5.188;2023-02-28T07:46:15;103250.0;;;3.33;92.09
68376;BME280;55318;52.068;5.188;2023-02-28T07:47:52;103252.0;;;3.19;92.51
68376;BME280;55318;52.068;5.188;2023-02-28T07:49:29;103255.0;;;3.25;92.95
68376;BME280;55318;52.068;5.188;2023-02-28T07:51:05;103261.99999999999;;;3.33;92.76
68376;BME280;55318;52.068;5.188;2023-02-28T07:54:18;103256.0;;;3.34;92.62
68376;BME280;55318;52.068;5.188;2023-02-28T07:55:55;103263.00000000001;;;3.39;92.58
68376;BME280;55318;52.068;5.188;2023-02-28T07:57:31;103265.00000000001;;;3.46;92.26
68376;BME280;55318;52.068;5.188;2023-02-28T08:00:44;103267.0;;;3.45;92.28
68376;BME280;55318;52.068;5.188;2023-02-28T08:02:20;103267.0;;;3.45;91.65
68376;BME280;55318;52.068;5.188;2023-02-28T08:03:56;103264.00000000001;;;3.43;91.93
68376;BME280;55318;52.068;5.188;2023-02-28T08:07:09;103266.00000000001;;;3.4;92.6
68376;BME280;55318;52.068;5.188;2023-02-28T08:08:44;103272.0;;;3.59;92.17
68376;BME280;55318;52.068;5.188;2023-02-28T08:10:21;103274.0;;;3.77;91.36
68376;BME280;55318;52.068;5.188;2023-02-28T08:11:57;103264.00000000001;;;3.7;91.64
68376;BME280;55318;52.068;5.188;2023-02-28T08:15:10;103264.00000000001;;;3.69;91.89
68376;BME280;55318;52.068;5.188;2023-02-28T08:16:46;103268.0;;;3.57;92.2
68376;BME280;55318;52.068;5.188;2023-02-28T08:18:23;103279.0;;;3.62;92.42
68376;BME280;55318;52.068;5.188;2023-02-28T08:21:36;103283.0;;;3.58;92.17
68376;BME280;55318;52.068;5.188;2023-02-28T08:23:12;103284.99999999999;;;3.62;92.4
68376;BME280;55318;52.068;5.188;2023-02-28T08:24:49;103283.0;;;3.78;91.82
68376;BME280;55318;52.068;5.188;2023-02-28T08:28:02;103288.00000000001;;;3.87;91.95
68376;BME280;55318;52.068;5.188;2023-02-28T08:29:38;103283.0;;;3.87;91.28
68376;BME280;55318;52.068;5.188;2023-02-28T08:31:16;103283.0;;;3.98;90.5
68376;BME280;55318;52.068;5.188;2023-02-28T08:32:53;103276.0;;;3.93;90.26
68376;BME280;55318;52.068;5.188;2023-02-28T08:36:06;103280.0;;;4.03;89.11
68376;BME280;55318;52.068;5.188;2023-02-28T08:37:43;103277.0;;;4.16;88.32
68376;BME280;55318;52.068;5.188;2023-02-28T08:39:19;103272.0;;;4.08;87.96
68376;BME280;55318;52.068;5.188;2023-02-28T08:42:34;103277.0;;;4.17;87.77
68376;BME280;55318;52.068;5.188;2023-02-28T08:44:12;103278.0;;;4.3;86.0
68376;BME280;55318;52.068;5.188;2023-02-28T08:45:51;103278.0;;;4.38;85.45
68376;BME280;55318;52.068;5.188;2023-02-28T08:49:03;103281.0;;;4.37;83.72
68376;BME280;55318;52.068;5.188;2023-02-28T08:50:39;103276.0;;;4.42;82.63
68376;BME280;55318;52.068;5.188;2023-02-28T08:52:15;103274.0;;;4.49;81.72
68376;BME280;55318;52.068;5.188;2023-02-28T08:53:53;103277.0;;;4.5;82.45
68376;BME280;55318;52.068;5.188;2023-02-28T08:57:06;103278.0;;;4.53;81.55
68376;BME280;55318;52.068;5.188;2023-02-28T08:58:43;103280.0;;;4.49;81.27
68376;BME280;55318;52.068;5.188;2023-02-28T09:00:21;103275.0;;;4.49;81.52
68376;BME280;55318;52.068;5.188;2023-02-28T09:03:34;103274.0;;;4.43;81.86
68376;BME280;55318;52.068;5.188;2023-02-28T09:05:10;103270.0;;;4.54;81.52
68376;BME280;55318;52.068;5.188;2023-02-28T09:06:46;103269.0;;;4.62;79.72
68376;BME280;55318;52.068;5.188;2023-02-28T09:09:59;103269.0;;;4.58;79.13
68376;BME280;55318;52.068;5.188;2023-02-28T09:11:36;103270.0;;;4.59;78.92
68376;BME280;55318;52.068;5.188;2023-02-28T09:13:12;103282.0;;;4.68;78.12
68376;BME280;55318;52.068;5.188;2023-02-28T09:14:49;103290.00000000001;;;4.8;77.33
68376;BME280;55318;52.068;5.188;2023-02-28T09:18:01;103280.0;;;4.78;76.5
68376;BME280;55318;52.068;5.188;2023-02-28T09:19:37;103289.00000000001;;;4.88;75.77
68376;BME280;55318;52.068;5.188;2023-02-28T09:21:15;103290.00000000001;;;4.99;73.87
68376;BME280;55318;52.068;5.188;2023-02-28T09:24:28;103277.0;;;4.99;70.72
68376;BME280;55318;52.068;5.188;2023-02-28T09:26:05;103279.0;;;5.12;70.2
68376;BME280;55318;52.068;5.188;2023-02-28T09:27:42;103275.0;;;4.95;68.16
68376;BME280;55318;52.068;5.188;2023-02-28T09:30:54;103288.00000000001;;;4.83;64.52
68376;BME280;55318;52.068;5.188;2023-02-28T09:32:31;103284.99999999999;;;5.12;64.58
68376;BME280;55318;52.068;5.188;2023-02-28T09:34:07;103283.0;;;5.19;63.32
68376;BME280;55318;52.068;5.188;2023-02-28T09:35:43;103282.0;;;5.24;61.24
68376;BME280;55318;52.068;5.188;2023-02-28T09:38:56;103282.0;;;5.38;58.76
68376;BME280;55318;52.068;5.188;2023-02-28T09:40:35;103283.99999999999;;;5.67;59.97
68376;BME280;55318;52.068;5.188;2023-02-28T09:42:21;103283.99999999999;;;5.74;59.26
68376;BME280;55318;52.068;5.188;2023-02-28T09:44:07;103282.0;;;5.9;60.0
68376;BME280;55318;52.068;5.188;2023-02-28T09:47:32;103286.99999999999;;;5.87;58.69
68376;BME280;55318;52.068;5.188;2023-02-28T09:49:14;103290.00000000001;;;5.82;56.64
68376;BME280;55318;52.068;5.188;2023-02-28T09:50:59;103290.00000000001;;;6.0;57.68
68376;BME280;55318;52.068;5.188;2023-02-28T09:52:36;103292.0;;;6.04;55.92
68376;BME280;55318;52.068;5.188;2023-02-28T09:55:55;103292.0;;;6.25;52.16
68376;BME280;55318;52.068;5.188;2023-02-28T09:57:37;103281.0;;;6.29;51.28
68376;BME280;55318;52.068;5.188;2023-02-28T09:59:28;103280.0;;;6.52;49.84
68376;BME280;55318;52.068;5.188;2023-02-28T10:01:21;103283.99999999999;;;6.53;48.57
68376;BME280;55318;52.068;5.188;2023-02-28T10:03:22;103282.0;;;6.51;46.96
68376;BME280;55318;52.068;5.188;2023-02-28T10:05:05;103288.00000000001;;;6.61;46.81
68376;BME280;55318;52.068;5.188;2023-02-28T10:08:27;103289.00000000001;;;6.45;44.89
68376;BME280;55318;52.068;5.188;2023-02-28T10:10:18;103292.0;;;6.65;46.59
68376;BME280;55318;52.068;5.188;2023-02-28T10:12:01;103286.99999999999;;;6.64;45.93
68376;BME280;55318;52.068;5.188;2023-02-28T10:13:49;103286.99999999999;;;6.56;46.37
68376;BME280;55318;52.068;5.188;2023-02-28T10:15:30;103283.0;;;6.71;47.15
68376;BME280;55318;52.068;5.188;2023-02-28T10:18:57;103290.00000000001;;;6.72;46.56
68376;BME280;55318;52.068;5.188;2023-02-28T10:20:37;103283.0;;;6.63;45.31
68376;BME280;55318;52.068;5.188;2023-02-28T10:22:17;103282.0;;;6.63;45.81
68376;BME280;55318;52.068;5.188;2023-02-28T10:24:03;103274.0;;;6.63;46.3
68376;BME280;55318;52.068;5.188;2023-02-28T10:25:55;103277.0;;;6.6;45.7
68376;BME280;55318;52.068;5.188;2023-02-28T10:29:11;103270.0;;;6.79;45.65
68376;BME280;55318;52.068;5.188;2023-02-28T10:32:28;103265.00000000001;;;6.77;44.59
68376;BME280;55318;52.068;5.188;2023-02-28T10:35:47;103264.00000000001;;;7.04;46.75
68376;BME280;55318;52.068;5.188;2023-02-28T10:37:24;103264.00000000001;;;7.2;45.96
68376;BME280;55318;52.068;5.188;2023-02-28T10:39:34;103265.00000000001;;;6.96;43.71
68376;BME280;55318;52.068;5.188;2023-02-28T10:41:13;103259.99999999999;;;6.99;43.17
68376;BME280;55318;52.068;5.188;2023-02-28T10:42:55;103261.99999999999;;;7.13;43.99
68376;BME280;55318;52.068;5.188;2023-02-28T10:46:14;103258.0;;;7.28;43.84
68376;BME280;55318;52.068;5.188;2023-02-28T10:47:53;103263.00000000001;;;7.28;45.41
68376;BME280;55318;52.068;5.188;2023-02-28T10:49:30;103263.00000000001;;;7.45;42.55
68376;BME280;55318;52.068;5.188;2023-02-28T10:51:08;103261.99999999999;;;7.43;42.68
68376;BME280;55318;52.068;5.188;2023-02-28T10:54:24;103261.99999999999;;;7.42;42.22
68376;BME280;55318;52.068;5.188;2023-02-28T10:56:05;103259.99999999999;;;7.55;41.46
68376;BME280;55318;52.068;5.188;2023-02-28T10:57:49;103257.0;;;7.56;42.31
68376;BME280;55318;52.068;5.188;2023-02-28T10:59:29;103251.0;;;7.67;41.76
68376;BME280;55318;52.068;5.188;2023-02-28T11:02:50;103253.0;;;7.58;40.78
68376;BME280;55318;52.068;5.188;2023-02-28T11:04:35;103240.00000000001;;;7.69;40.92